Saint Charles, IL

6:57 PM CST on December 04, 2016 (GMT -0600)
Du Page | | Change Station

Elev 758 ft 41.90 °N, 88.25 °W | Updated 5 minutes ago

Light Snow
Light Snow Mist
30 °F
Feels Like 26 °F
N
4
Wind Variable Wind from West

Today
High -- | Low -- °F
--% Chance of Precip.
Yesterday
High -- | Low -- °F
Precip. -- in
Pressure 29.91 in
Visibility 1.8 miles
Clouds Few 500 ft
Overcast 1300 ft
Windchill 26 °F
Dew Point 29 °F
Humidity 96%
Rainfall 0.39 in
Snow Depth Not available.
7:04 AM 4:22 PM
Waxing Crescent, 27% visible
METAR KDPA 050052Z 27003KT 1 3/4SM R02L/3500FT -SN BR FEW005 OVC013 M01/M02 A2989 RMK AO2 SLP129 P0000 T10111017
Pressure 29.91 in
Visibility 1.8 miles
Clouds Few 500 ft
Overcast 1300 ft
Windchill 26 °F
Dew Point 29 °F
Humidity 96%
Rainfall 0.39 in
Snow Depth Not available.
7:04 AM 4:22 PM
Waxing Crescent, 27% visible
METAR KDPA 050052Z 27003KT 1 3/4SM R02L/3500FT -SN BR FEW005 OVC013 M01/M02 A2989 RMK AO2 SLP129 P0000 T10111017

10-Day Weather Forecast

Almanac

Astronomy

Dec. 04, 2016 Rise Set
Actual Time
Civil Twilight
Nautical Twilight
Astronomical Twilight
Moon
Length of Visible Light
Length of Day
Tomorrow will be .
, % of the Moon is Illuminated

Today's Extremes

State Highs State Lows

Community

WunderPhotos

Upload Photos

1,955,729 photos uploaded!

WunderBlog® & News

Nearby

Air Quality

  Air Quality AQ Index Pollutant
Not available.

Snow Depth

Station Depth Elevation

Earthquake Activity

City Distance Mag. Time & Date
Minimum magnitude displayed is 2.5.

Coastal Water Temperatures

Place Temperature

Stations

Nearby Weather Stations

Station Location Temp. Windchill Dew Point Humidity Wind Precip. Elev Updated Type
                   

Watches & Warnings

There are currently no watches in effect.